Time;durP1;ratioP1;P1;durP2;ratioP2;P2;SDS_P1;SDS_P2;PMS_P1;PMS_P2;Temp;Humidity;BMP_temperature;BMP_pressure;BME280_temperature;BME280_humidity;BME280_pressure;Samples;Min_cycle;Max_cycle;Signal;HPM_P1;HPM_P2
2021/01/09 00:00:19;;;;;;;11.00;7.90;;;1.20;99.90;;;;;;5072300;28;20264;-75
2021/01/09 00:02:45;;;;;;;9.43;7.43;;;1.20;99.90;;;;;;5072702;28;20216;-75
2021/01/09 00:05:13;;;;;;;10.03;7.80;;;1.20;99.90;;;;;;5074048;28;20186;-75
2021/01/09 00:07:38;;;;;;;11.43;7.40;;;1.10;99.90;;;;;;5069518;28;20669;-76
2021/01/09 00:10:06;;;;;;;12.80;8.57;;;1.10;99.90;;;;;;5074015;28;20257;-75
2021/01/09 00:12:34;;;;;;;9.60;7.63;;;1.10;99.90;;;;;;5073272;28;20716;-75
2021/01/09 00:15:00;;;;;;;9.65;8.65;;;1.10;99.90;;;;;;5073903;28;20545;-75
2021/01/09 00:17:25;;;;;;;11.03;7.40;;;1.10;99.90;;;;;;5069850;28;20182;-75
2021/01/09 00:19:51;;;;;;;11.13;8.50;;;1.10;99.90;;;;;;5073922;28;20515;-76
2021/01/09 00:22:16;;;;;;;12.00;9.60;;;1.10;99.90;;;;;;5072840;28;20210;-75
2021/01/09 00:24:42;;;;;;;10.03;7.47;;;1.10;99.90;;;;;;5073398;28;20181;-75
2021/01/09 00:27:12;;;;;;;12.17;8.30;;;1.10;99.90;;;;;;5072579;28;20182;-76
2021/01/09 00:29:41;;;;;;;12.15;9.63;;;1.00;99.90;;;;;;5074401;28;20189;-76
2021/01/09 00:32:07;;;;;;;11.07;8.13;;;1.00;99.90;;;;;;5078346;28;20186;-76
2021/01/09 00:34:32;;;;;;;9.37;8.37;;;1.00;99.90;;;;;;5075011;28;20622;-76
2021/01/09 00:36:58;;;;;;;12.70;8.47;;;1.10;99.90;;;;;;5072609;28;20182;-75
2021/01/09 00:39:24;;;;;;;10.23;8.03;;;1.10;99.90;;;;;;5073360;28;20178;-76
2021/01/09 00:41:50;;;;;;;12.03;8.60;;;1.10;99.90;;;;;;5072632;28;20237;-75
2021/01/09 00:44:16;;;;;;;12.00;8.17;;;1.10;99.90;;;;;;5073616;28;20436;-75
2021/01/09 00:46:41;;;;;;;8.57;7.40;;;1.20;99.90;;;;;;5068775;28;20197;-75
2021/01/09 00:49:07;;;;;;;10.97;8.10;;;1.30;99.90;;;;;;5073034;28;20186;-75
2021/01/09 00:51:32;;;;;;;12.17;8.63;;;1.20;99.90;;;;;;5072526;28;20182;-76
2021/01/09 00:53:58;;;;;;;9.70;8.70;;;1.20;99.90;;;;;;5073104;28;20282;-75
2021/01/09 00:56:23;;;;;;;11.13;8.23;;;1.20;99.90;;;;;;5072455;28;20186;-75
2021/01/09 00:58:49;;;;;;;9.07;8.10;;;1.20;99.90;;;;;;5073145;28;20189;-75
2021/01/09 01:01:14;;;;;;;10.93;7.87;;;1.20;99.90;;;;;;5068679;28;20218;-75
2021/01/09 01:03:42;;;;;;;11.10;8.30;;;1.20;99.90;;;;;;5072671;28;20209;-75
2021/01/09 01:06:08;;;;;;;10.98;8.00;;;1.20;99.90;;;;;;5072499;28;20198;-75
2021/01/09 01:08:33;;;;;;;12.57;8.00;;;1.30;99.90;;;;;;5072883;28;20190;-75
2021/01/09 01:10:59;;;;;;;9.60;8.07;;;1.30;99.90;;;;;;5072019;28;20232;-75
2021/01/09 01:13:24;;;;;;;9.40;7.33;;;1.30;99.90;;;;;;5072541;28;20653;-76
2021/01/09 01:15:50;;;;;;;12.50;8.33;;;1.30;99.90;;;;;;5072244;28;20181;-75
2021/01/09 01:18:20;;;;;;;11.57;8.17;;;1.30;99.90;;;;;;5072114;28;20197;-76
2021/01/09 01:20:45;;;;;;;8.80;7.28;;;1.30;99.90;;;;;;5071657;28;20184;-75
2021/01/09 01:23:11;;;;;;;8.37;7.10;;;1.30;99.90;;;;;;5072625;28;20235;-76
2021/01/09 01:25:36;;;;;;;10.43;8.10;;;1.40;99.90;;;;;;5071870;28;20197;-77
2021/01/09 01:28:02;;;;;;;11.27;8.07;;;1.30;99.90;;;;;;5072463;28;20201;-75
2021/01/09 01:30:27;;;;;;;9.40;8.10;;;1.30;99.90;;;;;;5071343;28;20601;-75
2021/01/09 01:32:53;;;;;;;8.47;6.63;;;1.30;99.90;;;;;;5066308;28;20186;-75
2021/01/09 01:35:18;;;;;;;11.10;8.07;;;1.30;99.90;;;;;;5071933;28;20193;-76
2021/01/09 01:37:44;;;;;;;11.33;7.70;;;1.30;99.90;;;;;;5069528;28;20186;-75
2021/01/09 01:40:10;;;;;;;7.67;6.30;;;1.40;99.90;;;;;;5072460;28;20197;-75
2021/01/09 01:42:36;;;;;;;8.57;7.65;;;1.40;99.90;;;;;;5071531;28;20217;-76
2021/01/09 01:45:02;;;;;;;9.53;7.63;;;1.40;99.90;;;;;;5070696;28;20193;-75
2021/01/09 01:47:27;;;;;;;12.20;7.75;;;1.30;99.90;;;;;;5071212;28;20220;-76
2021/01/09 01:49:53;;;;;;;8.37;6.37;;;1.30;99.90;;;;;;5072782;28;20177;-75
2021/01/09 01:52:19;;;;;;;13.82;8.93;;;1.30;99.90;;;;;;5069708;28;20181;-75
2021/01/09 01:54:45;;;;;;;13.20;8.40;;;1.30;99.90;;;;;;5070983;28;20283;-75
2021/01/09 01:57:12;;;;;;;11.23;7.78;;;1.30;99.90;;;;;;5072545;28;20261;-75
2021/01/09 01:59:42;;;;;;;9.57;7.35;;;1.30;99.90;;;;;;5071076;28;20209;-76
2021/01/09 02:02:10;;;;;;;12.07;8.05;;;1.30;99.90;;;;;;5071867;28;20256;-75
2021/01/09 02:04:37;;;;;;;10.90;7.55;;;1.30;99.90;;;;;;5071146;28;20215;-75
2021/01/09 02:07:11;;;;;;;8.98;7.32;;;1.40;99.90;;;;;;5072276;28;20182;-76
2021/01/09 02:09:44;;;;;;;10.20;7.07;;;1.30;99.90;;;;;;5070746;28;20678;-76
2021/01/09 02:12:09;;;;;;;10.23;7.88;;;1.30;99.90;;;;;;5072381;28;20308;-76
2021/01/09 02:14:40;;;;;;;10.33;7.23;;;1.30;99.90;;;;;;5071183;28;20648;-76
2021/01/09 02:17:07;;;;;;;10.18;6.63;;;1.40;99.90;;;;;;5072153;28;20238;-76
2021/01/09 02:19:38;;;;;;;9.82;6.88;;;1.40;99.90;;;;;;5070771;28;20605;-76
2021/01/09 02:22:08;;;;;;;9.23;7.15;;;1.40;99.90;;;;;;5067692;28;20672;-75
2021/01/09 02:24:33;;;;;;;10.73;8.70;;;1.40;99.90;;;;;;5071498;28;20281;-75
2021/01/09 02:26:59;;;;;;;11.57;7.30;;;1.50;99.90;;;;;;5072069;28;20696;-75
2021/01/09 02:29:29;;;;;;;9.40;7.88;;;1.50;99.90;;;;;;5071611;28;20194;-75
2021/01/09 02:32:04;;;;;;;9.95;7.63;;;1.50;99.90;;;;;;5071749;28;20677;-75
2021/01/09 02:34:54;;;;;;;9.52;7.00;;;1.50;99.90;;;;;;5071448;28;20235;-76
2021/01/09 02:37:20;;;;;;;9.32;7.32;;;1.50;99.90;;;;;;5066184;28;20272;-75
2021/01/09 02:39:46;;;;;;;9.90;6.72;;;1.60;99.90;;;;;;5070362;28;20236;-75
2021/01/09 02:42:12;;;;;;;8.47;6.60;;;1.60;99.90;;;;;;5071933;28;20209;-76
2021/01/09 02:44:38;;;;;;;10.60;7.97;;;1.60;99.90;;;;;;5071509;28;20931;-75
2021/01/09 02:47:06;;;;;;;8.57;7.37;;;1.60;99.90;;;;;;5068633;28;20186;-75
2021/01/09 02:49:32;;;;;;;9.38;8.20;;;1.60;99.90;;;;;;5071552;28;20443;-77
2021/01/09 02:51:58;;;;;;;10.50;7.40;;;1.60;99.90;;;;;;5070943;28;20174;-75
2021/01/09 02:54:23;;;;;;;11.47;8.10;;;1.60;99.90;;;;;;5071459;28;20923;-75
2021/01/09 02:56:49;;;;;;;11.67;7.50;;;1.60;99.90;;;;;;5074064;28;20653;-75
2021/01/09 02:59:14;;;;;;;8.23;6.47;;;1.60;99.90;;;;;;5075537;28;20190;-75
2021/01/09 03:01:41;;;;;;;7.60;6.83;;;1.60;99.90;;;;;;5074692;28;20626;-75
2021/01/09 03:04:06;;;;;;;7.05;6.35;;;1.50;99.90;;;;;;5075041;28;20228;-75
2021/01/09 03:06:32;;;;;;;11.00;7.80;;;1.50;99.90;;;;;;5075267;28;20178;-75
2021/01/09 03:08:57;;;;;;;7.73;6.83;;;1.50;99.90;;;;;;5075303;28;20178;-74
2021/01/09 03:11:23;;;;;;;11.50;7.70;;;1.50;99.90;;;;;;5068166;28;20182;-76
2021/01/09 03:13:49;;;;;;;9.50;7.67;;;1.50;99.90;;;;;;5083022;28;20182;-76
2021/01/09 03:16:14;;;;;;;10.27;7.70;;;1.50;99.90;;;;;;5075005;28;20679;-76
2021/01/09 03:18:40;;;;;;;8.83;6.93;;;1.50;99.90;;;;;;5075557;28;20182;-75
2021/01/09 03:21:06;;;;;;;7.72;6.55;;;1.60;99.90;;;;;;5067838;28;20190;-75
2021/01/09 03:23:32;;;;;;;10.55;7.30;;;1.50;99.90;;;;;;5074605;28;20217;-76
2021/01/09 03:25:58;;;;;;;9.53;6.90;;;1.50;99.90;;;;;;5069538;28;20182;-75
2021/01/09 03:28:24;;;;;;;12.93;8.17;;;1.60;99.90;;;;;;5074948;28;20277;-75
2021/01/09 03:30:50;;;;;;;12.47;7.70;;;1.70;99.90;;;;;;5074414;28;20186;-75
2021/01/09 03:33:16;;;;;;;12.10;7.65;;;1.60;99.90;;;;;;5074606;28;20876;-75
2021/01/09 03:35:42;;;;;;;8.95;7.68;;;1.60;99.90;;;;;;5073854;28;20209;-75
2021/01/09 03:38:07;;;;;;;11.32;7.90;;;1.60;99.90;;;;;;5074840;28;20661;-75
2021/01/09 03:40:33;;;;;;;9.07;7.37;;;1.60;99.90;;;;;;5073754;28;20182;-75
2021/01/09 03:42:58;;;;;;;13.63;7.80;;;1.60;99.90;;;;;;5074449;28;20224;-75
2021/01/09 03:45:24;;;;;;;11.00;7.10;;;1.60;99.90;;;;;;5066063;28;20209;-75
2021/01/09 03:47:50;;;;;;;9.03;7.47;;;1.60;99.90;;;;;;5074345;28;20525;-75
2021/01/09 03:50:15;;;;;;;10.10;7.67;;;1.60;99.90;;;;;;5073313;28;20264;-75
2021/01/09 03:52:41;;;;;;;9.43;8.10;;;1.60;99.90;;;;;;5070478;28;20178;-75
2021/01/09 03:55:07;;;;;;;10.60;7.97;;;1.60;99.90;;;;;;5071807;28;20431;-75
2021/01/09 03:57:33;;;;;;;11.25;8.23;;;1.70;99.90;;;;;;5074363;28;20235;-75
2021/01/09 03:59:58;;;;;;;11.23;8.07;;;1.70;99.90;;;;;;5073321;28;20194;-75
2021/01/09 04:02:24;;;;;;;11.97;9.03;;;1.70;99.90;;;;;;5073152;28;20636;-75
2021/01/09 04:04:49;;;;;;;10.80;8.47;;;1.70;99.90;;;;;;5074574;28;20174;-75
2021/01/09 04:07:15;;;;;;;9.37;7.90;;;1.80;99.90;;;;;;5072782;28;20186;-76
2021/01/09 04:09:40;;;;;;;12.50;8.97;;;1.80;99.90;;;;;;5072602;28;20539;-75
2021/01/09 04:12:06;;;;;;;11.77;8.33;;;1.80;99.90;;;;;;5073740;28;20669;-75
2021/01/09 04:14:32;;;;;;;10.30;8.50;;;1.80;99.90;;;;;;5073429;28;20452;-75
2021/01/09 04:16:57;;;;;;;9.50;7.33;;;1.80;99.90;;;;;;5073330;28;20440;-75
2021/01/09 04:19:23;;;;;;;9.10;7.10;;;1.80;99.90;;;;;;5073903;28;20186;-76
2021/01/09 04:21:53;;;;;;;11.67;7.80;;;1.80;99.90;;;;;;5074007;28;20279;-75
2021/01/09 04:24:20;;;;;;;11.88;8.38;;;1.80;99.90;;;;;;5073233;28;20193;-75
2021/01/09 04:26:52;;;;;;;11.90;8.00;;;1.70;99.90;;;;;;5073716;28;20628;-75
2021/01/09 04:29:17;;;;;;;9.45;7.50;;;1.70;99.90;;;;;;5071557;28;20645;-77
2021/01/09 04:31:42;;;;;;;9.60;7.90;;;1.70;99.90;;;;;;5073848;28;20309;-75
2021/01/09 04:34:08;;;;;;;11.50;7.40;;;1.70;99.90;;;;;;5071932;28;20185;-75
2021/01/09 04:36:33;;;;;;;9.33;6.93;;;1.70;99.90;;;;;;5073163;28;20289;-75
2021/01/09 04:38:59;;;;;;;10.43;6.63;;;1.70;99.90;;;;;;5072917;28;20182;-77
2021/01/09 04:41:25;;;;;;;8.40;7.20;;;1.70;99.90;;;;;;5073161;28;20194;-76
2021/01/09 04:43:51;;;;;;;8.13;7.03;;;1.70;99.90;;;;;;5072902;28;20692;-76
2021/01/09 04:46:17;;;;;;;8.03;6.77;;;1.70;99.90;;;;;;5073329;28;20190;-75
2021/01/09 04:48:44;;;;;;;7.70;6.90;;;1.70;99.90;;;;;;5072935;28;20556;-75
2021/01/09 04:51:09;;;;;;;11.48;8.10;;;1.70;99.90;;;;;;5073487;28;20440;-76
2021/01/09 04:53:37;;;;;;;10.70;7.73;;;1.70;99.90;;;;;;5072728;28;20251;-76
2021/01/09 04:56:03;;;;;;;11.55;7.45;;;1.70;99.90;;;;;;5073218;28;20269;-75
2021/01/09 04:58:31;;;;;;;9.53;7.40;;;1.70;99.90;;;;;;5072257;28;20721;-76
2021/01/09 05:00:56;;;;;;;11.23;7.72;;;1.70;99.90;;;;;;5073093;28;20885;-75
2021/01/09 05:03:22;;;;;;;9.63;7.27;;;1.70;99.90;;;;;;5072566;28;20213;-76
2021/01/09 05:05:49;;;;;;;10.10;7.50;;;1.70;99.90;;;;;;5072570;28;20256;-75
2021/01/09 05:08:14;;;;;;;11.77;8.25;;;1.70;99.90;;;;;;5067302;28;20543;-76
2021/01/09 05:10:41;;;;;;;13.40;8.97;;;1.70;99.90;;;;;;5070601;28;20264;-75
2021/01/09 05:13:06;;;;;;;9.18;8.15;;;1.70;99.90;;;;;;5071739;28;20186;-76
2021/01/09 05:15:39;;;;;;;15.07;7.67;;;1.80;99.90;;;;;;5072327;28;20308;-76
2021/01/09 05:18:06;;;;;;;12.13;9.05;;;1.70;99.90;;;;;;5066159;28;20494;-76
2021/01/09 05:20:32;;;;;;;12.35;8.38;;;1.70;99.90;;;;;;5072183;28;20181;-75
2021/01/09 05:22:59;;;;;;;13.98;9.77;;;1.80;99.90;;;;;;5064388;28;20572;-76
2021/01/09 05:25:26;;;;;;;9.63;7.90;;;1.80;99.90;;;;;;5072578;28;20181;-76
2021/01/09 05:27:54;;;;;;;11.30;8.55;;;1.80;99.90;;;;;;5070623;28;20583;-75
2021/01/09 05:30:20;;;;;;;14.50;7.88;;;1.80;99.90;;;;;;5066411;28;20259;-76
2021/01/09 05:32:45;;;;;;;14.02;8.38;;;1.80;99.90;;;;;;5071631;28;20198;-75
2021/01/09 05:35:15;;;;;;;12.57;9.43;;;1.80;99.90;;;;;;5072568;28;20189;-75
2021/01/09 05:37:40;;;;;;;11.75;8.93;;;1.80;99.90;;;;;;5072172;28;20635;-75
2021/01/09 05:40:09;;;;;;;9.00;7.80;;;1.80;99.90;;;;;;5072147;28;20273;-75
2021/01/09 05:42:34;;;;;;;12.05;7.40;;;1.80;99.90;;;;;;5072195;28;20283;-75
2021/01/09 05:45:00;;;;;;;11.47;7.70;;;1.80;99.90;;;;;;5071713;28;20190;-75
2021/01/09 05:47:28;;;;;;;11.47;8.10;;;1.80;99.90;;;;;;5073000;28;20191;-75
2021/01/09 05:49:57;;;;;;;12.48;7.93;;;1.80;99.90;;;;;;5071979;28;20178;-75
2021/01/09 05:52:25;;;;;;;9.52;7.03;;;1.80;99.90;;;;;;5072276;28;20261;-75
2021/01/09 05:54:55;;;;;;;11.15;7.85;;;1.80;99.90;;;;;;5075834;28;20200;-76
2021/01/09 05:57:26;;;;;;;10.05;7.72;;;1.80;99.90;;;;;;5076552;28;20268;-76
2021/01/09 05:59:55;;;;;;;13.40;9.10;;;1.80;99.90;;;;;;5073078;28;20190;-75
2021/01/09 06:02:23;;;;;;;11.20;8.20;;;1.80;99.90;;;;;;5070910;28;20229;-76
2021/01/09 06:04:50;;;;;;;12.25;8.48;;;1.80;99.90;;;;;;5071150;28;20190;-76
2021/01/09 06:07:24;;;;;;;13.55;8.63;;;1.80;99.90;;;;;;5072041;28;20552;-76
2021/01/09 06:10:00;;;;;;;11.82;8.18;;;1.80;99.90;;;;;;5072200;28;20178;-75
2021/01/09 06:12:27;;;;;;;18.48;11.13;;;1.80;99.90;;;;;;5071068;28;20189;-75
2021/01/09 06:14:53;;;;;;;14.95;9.60;;;1.80;99.90;;;;;;5064635;28;20174;-75
2021/01/09 06:17:21;;;;;;;17.30;10.80;;;1.80;99.90;;;;;;5072033;28;20205;-75
2021/01/09 06:19:47;;;;;;;14.50;10.65;;;1.80;99.90;;;;;;5071567;28;20285;-75
2021/01/09 06:22:13;;;;;;;13.40;10.80;;;1.80;99.90;;;;;;5072182;28;20407;-75
2021/01/09 06:24:40;;;;;;;16.07;10.27;;;1.80;99.90;;;;;;5071133;28;20193;-76
2021/01/09 06:27:08;;;;;;;12.50;8.80;;;1.80;99.90;;;;;;5072135;28;20523;-76
2021/01/09 06:29:37;;;;;;;14.88;10.35;;;1.80;99.90;;;;;;5070114;28;20186;-76
2021/01/09 06:32:08;;;;;;;12.23;9.10;;;1.80;99.90;;;;;;5076077;28;20194;-76
2021/01/09 06:34:38;;;;;;;13.27;9.55;;;1.80;99.90;;;;;;5075517;28;20178;-75
2021/01/09 06:37:05;;;;;;;11.48;8.95;;;1.80;99.90;;;;;;5076060;28;20618;-75
2021/01/09 06:39:35;;;;;;;11.30;8.38;;;1.80;99.90;;;;;;5073260;28;20185;-76
2021/01/09 06:42:04;;;;;;;11.77;9.20;;;1.80;99.90;;;;;;5075721;28;20178;-75
2021/01/09 06:44:31;;;;;;;12.20;8.65;;;1.80;99.90;;;;;;5073970;28;20209;-75
2021/01/09 06:46:56;;;;;;;13.73;10.23;;;1.80;99.90;;;;;;5075682;28;20192;-75
2021/01/09 06:49:25;;;;;;;11.33;9.20;;;1.80;99.90;;;;;;5073426;28;20256;-77
2021/01/09 06:52:02;;;;;;;12.05;9.63;;;1.80;99.90;;;;;;5075530;28;20178;-76
2021/01/09 06:54:39;;;;;;;15.50;9.52;;;1.80;99.90;;;;;;5075070;28;20220;-75
2021/01/09 06:57:05;;;;;;;21.42;11.15;;;1.80;99.90;;;;;;5075809;28;20223;-75
2021/01/09 06:59:41;;;;;;;25.33;14.07;;;1.80;99.90;;;;;;5074353;28;20253;-76
2021/01/09 07:02:14;;;;;;;22.75;15.55;;;1.80;99.90;;;;;;5075279;28;20229;-76
2021/01/09 07:04:52;;;;;;;22.95;16.27;;;1.70;99.90;;;;;;5070949;28;20182;-75
2021/01/09 07:07:59;;;;;;;25.45;17.15;;;1.70;99.90;;;;;;5075543;28;20669;-76
2021/01/09 07:10:27;;;;;;;31.73;17.35;;;1.70;99.90;;;;;;5072373;28;20206;-76
2021/01/09 07:13:03;;;;;;;26.83;18.25;;;1.70;99.90;;;;;;5075465;28;20174;-75
2021/01/09 07:15:31;;;;;;;22.77;16.02;;;1.60;99.90;;;;;;5072277;28;20193;-75
2021/01/09 07:17:59;;;;;;;26.33;16.35;;;1.60;99.90;;;;;;5075207;28;20189;-75
2021/01/09 07:20:58;;;;;;;23.20;15.45;;;1.60;99.90;;;;;;5073109;28;20653;-76
2021/01/09 07:23:28;;;;;;;22.65;15.32;;;1.70;99.90;;;;;;5055441;28;20312;-75
2021/01/09 07:25:56;;;;;;;27.73;18.40;;;1.70;99.90;;;;;;5072364;28;20182;-74
2021/01/09 07:28:24;;;;;;;27.98;17.65;;;1.70;99.90;;;;;;5074610;28;20205;-75
2021/01/09 07:31:02;;;;;;;28.20;15.80;;;1.60;99.90;;;;;;5074726;28;20668;-74
2021/01/09 07:33:30;;;;;;;24.55;16.25;;;1.60;99.90;;;;;;5073171;28;20174;-75
2021/01/09 07:35:56;;;;;;;29.05;18.30;;;1.70;99.90;;;;;;5073870;28;20262;-75
2021/01/09 07:38:22;;;;;;;31.83;17.23;;;1.70;99.90;;;;;;5074340;28;20205;-75
2021/01/09 07:40:54;;;;;;;29.60;17.87;;;1.60;99.90;;;;;;5074066;28;20384;-74
2021/01/09 07:43:44;;;;;;;31.52;18.40;;;1.60;99.90;;;;;;5072381;28;20602;-74
2021/01/09 07:46:25;;;;;;;30.95;19.60;;;1.70;99.90;;;;;;5074057;28;20182;-74
2021/01/09 07:48:51;;;;;;;26.80;15.80;;;1.70;99.90;;;;;;5073245;28;20182;-75
2021/01/09 07:51:18;;;;;;;30.02;17.10;;;1.70;99.90;;;;;;5073918;28;20178;-75
2021/01/09 07:53:46;;;;;;;29.08;16.63;;;1.70;99.90;;;;;;5073275;28;20649;-74
2021/01/09 07:56:32;;;;;;;32.35;20.00;;;1.70;99.90;;;;;;5073408;28;20179;-75
2021/01/09 07:58:57;;;;;;;33.63;17.77;;;1.70;99.90;;;;;;5069675;28;20189;-74
2021/01/09 08:01:23;;;;;;;28.10;16.83;;;1.80;99.90;;;;;;5073033;28;20233;-75
2021/01/09 08:03:48;;;;;;;26.50;16.20;;;1.80;99.90;;;;;;5073356;28;20287;-74
2021/01/09 08:06:14;;;;;;;32.30;16.07;;;1.90;99.90;;;;;;5073437;28;20193;-75
2021/01/09 08:08:39;;;;;;;29.40;16.87;;;1.80;99.90;;;;;;5066621;28;20291;-75
2021/01/09 08:11:05;;;;;;;29.43;16.20;;;1.90;99.90;;;;;;5073507;28;20189;-75
2021/01/09 08:13:30;;;;;;;28.70;16.00;;;1.90;99.90;;;;;;5073765;28;20217;-75
2021/01/09 08:15:57;;;;;;;34.50;18.00;;;1.90;99.90;;;;;;5073711;28;20182;-75
2021/01/09 08:18:23;;;;;;;29.08;16.38;;;1.90;99.90;;;;;;5074610;28;20201;-75
2021/01/09 08:20:49;;;;;;;25.37;16.37;;;1.90;99.90;;;;;;5058500;28;20214;-75
2021/01/09 08:23:15;;;;;;;25.45;15.70;;;1.90;99.90;;;;;;5060579;28;20213;-75
2021/01/09 08:25:42;;;;;;;27.47;14.40;;;1.90;99.90;;;;;;5071726;28;20228;-75
2021/01/09 08:28:07;;;;;;;27.50;16.60;;;1.90;99.90;;;;;;5073400;28;20657;-75
2021/01/09 08:30:34;;;;;;;27.27;17.47;;;1.90;99.90;;;;;;5068571;28;20186;-76
2021/01/09 08:33:02;;;;;;;31.13;19.95;;;1.90;99.90;;;;;;5074132;28;20273;-75
2021/01/09 08:35:27;;;;;;;31.17;16.40;;;1.90;99.90;;;;;;5072989;28;20240;-76
2021/01/09 08:37:53;;;;;;;38.60;19.10;;;1.80;99.90;;;;;;5073983;28;20650;-75
2021/01/09 08:40:19;;;;;;;28.10;17.60;;;1.80;99.90;;;;;;5080947;28;20178;-75
2021/01/09 08:43:12;;;;;;;34.70;16.95;;;1.80;99.90;;;;;;5073366;28;20753;-75
2021/01/09 08:45:48;;;;;;;24.08;15.50;;;1.80;99.90;;;;;;5070672;28;20761;-76
2021/01/09 08:48:20;;;;;;;23.13;13.93;;;1.80;99.90;;;;;;5070696;28;20193;-75
2021/01/09 08:51:12;;;;;;;21.25;12.65;;;1.80;99.90;;;;;;5072272;28;20180;-75
2021/01/09 08:53:50;;;;;;;25.60;14.20;;;1.80;99.90;;;;;;5066413;28;20709;-76
2021/01/09 08:56:19;;;;;;;22.05;14.55;;;1.80;99.90;;;;;;5069471;28;20544;-75
2021/01/09 08:58:45;;;;;;;24.10;14.63;;;1.80;99.90;;;;;;5071722;28;20182;-75
2021/01/09 09:01:13;;;;;;;27.95;15.15;;;1.80;99.90;;;;;;5071620;28;20249;-75
2021/01/09 09:03:47;;;;;;;27.27;16.40;;;1.90;99.90;;;;;;5071912;28;20221;-76
2021/01/09 09:06:15;;;;;;;25.98;16.80;;;1.90;99.90;;;;;;5068344;28;20665;-75
2021/01/09 09:08:42;;;;;;;27.95;16.08;;;1.90;99.90;;;;;;5073732;28;20182;-75
2021/01/09 09:11:08;;;;;;;29.90;16.17;;;1.90;99.90;;;;;;5071126;28;20272;-76
2021/01/09 09:13:34;;;;;;;28.00;15.75;;;2.00;99.90;;;;;;5064525;28;20234;-76
2021/01/09 09:16:16;;;;;;;28.75;15.43;;;2.10;99.90;;;;;;5072426;28;20539;-75
2021/01/09 09:18:42;;;;;;;26.80;16.58;;;2.20;99.90;;;;;;5064414;28;20222;-76
2021/01/09 09:21:09;;;;;;;31.23;17.30;;;2.20;99.90;;;;;;5071900;28;20706;-75
2021/01/09 09:23:36;;;;;;;25.45;14.48;;;2.20;99.90;;;;;;5063018;28;20321;-76
2021/01/09 09:26:29;;;;;;;21.65;14.20;;;2.30;99.90;;;;;;5071190;28;20281;-75
2021/01/09 09:28:56;;;;;;;23.35;14.45;;;2.30;99.90;;;;;;5065715;28;20182;-76
2021/01/09 09:31:22;;;;;;;27.98;16.10;;;2.40;99.90;;;;;;5071445;28;20216;-76
2021/01/09 09:34:00;;;;;;;27.90;18.03;;;2.40;99.90;;;;;;5070482;28;20209;-75
2021/01/09 09:36:27;;;;;;;27.20;20.13;;;2.50;99.90;;;;;;5072255;28;20177;-76
2021/01/09 09:38:53;;;;;;;27.80;17.88;;;2.50;99.90;;;;;;5072089;28;20194;-80
2021/01/09 09:41:18;;;;;;;27.33;16.83;;;2.60;99.90;;;;;;5069888;28;20246;-79
2021/01/09 09:43:58;;;;;;;28.33;15.90;;;2.60;99.90;;;;;;5071617;28;20213;-79
2021/01/09 09:46:24;;;;;;;26.48;16.00;;;2.70;99.90;;;;;;5068813;28;20580;-80
2021/01/09 09:48:49;;;;;;;26.70;18.63;;;2.60;99.90;;;;;;5066468;28;20185;-74
2021/01/09 09:51:15;;;;;;;31.17;18.67;;;2.60;99.90;;;;;;5069206;28;20472;-74
2021/01/09 09:53:51;;;;;;;29.30;17.80;;;2.70;99.90;;;;;;5070342;28;20196;-74
2021/01/09 09:56:21;;;;;;;29.33;18.58;;;2.70;99.90;;;;;;5068225;28;20515;-74
2021/01/09 09:59:02;;;;;;;29.48;17.33;;;2.80;99.90;;;;;;5069439;28;20616;-74
2021/01/09 10:01:29;;;;;;;35.50;28.88;;;2.80;99.90;;;;;;5070221;28;20312;-74
2021/01/09 10:03:55;;;;;;;95.53;73.20;;;3.00;99.90;;;;;;5077695;28;20244;-74
2021/01/09 10:06:22;;;;;;;32.10;20.03;;;3.10;99.90;;;;;;5072857;28;20206;-75
2021/01/09 10:08:47;;;;;;;30.50;18.80;;;3.10;99.90;;;;;;5070640;28;20439;-74
2021/01/09 10:11:13;;;;;;;33.13;20.07;;;3.20;99.90;;;;;;5067955;28;20189;-74
2021/01/09 10:13:39;;;;;;;26.87;16.97;;;3.20;99.90;;;;;;5070427;28;20837;-75
2021/01/09 10:16:05;;;;;;;29.27;17.10;;;3.20;99.90;;;;;;5070994;28;20193;-74
2021/01/09 10:18:33;;;;;;;28.42;18.42;;;3.20;99.90;;;;;;5069891;28;20198;-74
2021/01/09 10:20:59;;;;;;;26.17;17.05;;;3.30;99.90;;;;;;5070376;28;20217;-74
2021/01/09 10:23:25;;;;;;;25.83;15.15;;;3.40;99.90;;;;;;5068736;28;20216;-75
2021/01/09 10:25:51;;;;;;;27.05;16.55;;;3.40;99.90;;;;;;5067089;28;20182;-74
2021/01/09 10:28:17;;;;;;;28.63;17.43;;;3.50;99.90;;;;;;5068723;28;20242;-75
2021/01/09 10:30:43;;;;;;;33.57;19.50;;;3.60;99.90;;;;;;5070195;28;20186;-74
2021/01/09 10:33:09;;;;;;;31.17;20.47;;;3.60;99.90;;;;;;5067017;28;20192;-74
2021/01/09 10:35:35;;;;;;;27.05;19.25;;;3.60;99.90;;;;;;5071056;28;20440;-74
2021/01/09 10:38:00;;;;;;;30.30;19.48;;;3.70;99.90;;;;;;5071157;28;20190;-74
2021/01/09 10:40:26;;;;;;;31.17;20.13;;;3.70;99.90;;;;;;5066960;28;20240;-74
2021/01/09 10:42:52;;;;;;;28.47;18.83;;;3.70;99.90;;;;;;5066795;28;20312;-74
2021/01/09 10:45:17;;;;;;;24.90;16.73;;;3.70;99.90;;;;;;5071695;28;20185;-75
2021/01/09 10:47:43;;;;;;;31.63;21.37;;;3.80;99.90;;;;;;5070871;28;20451;-75
2021/01/09 10:50:10;;;;;;;25.93;18.20;;;3.90;99.90;;;;;;5071785;28;20188;-74
2021/01/09 10:52:35;;;;;;;22.55;16.23;;;3.90;99.90;;;;;;5070033;28;20657;-74
2021/01/09 10:55:02;;;;;;;27.20;16.40;;;4.00;99.90;;;;;;5071563;28;20284;-74
2021/01/09 10:57:28;;;;;;;25.90;16.73;;;4.10;99.90;;;;;;5067149;28;20184;-75
2021/01/09 10:59:53;;;;;;;30.95;17.85;;;4.10;99.00;;;;;;5071529;28;20264;-74
2021/01/09 11:02:19;;;;;;;21.83;17.43;;;4.20;99.80;;;;;;5070604;28;20312;-74
2021/01/09 11:04:44;;;;;;;23.77;16.60;;;4.30;99.90;;;;;;5070526;28;20221;-74
2021/01/09 11:07:10;;;;;;;23.47;16.87;;;4.30;99.90;;;;;;5070334;28;20190;-74
2021/01/09 11:09:35;;;;;;;22.03;14.87;;;4.40;99.90;;;;;;5068288;28;20182;-74
2021/01/09 11:12:01;;;;;;;23.80;15.53;;;4.40;99.00;;;;;;5068293;28;20186;-74
2021/01/09 11:14:27;;;;;;;24.20;14.00;;;4.30;96.30;;;;;;5069338;28;20187;-74
2021/01/09 11:16:59;;;;;;;23.47;13.93;;;4.30;97.30;;;;;;5076502;28;20178;-75
2021/01/09 11:19:25;;;;;;;22.55;15.60;;;4.90;98.50;;;;;;5078223;28;20182;-74
2021/01/09 11:21:51;;;;;;;20.30;14.15;;;5.60;99.90;;;;;;5070434;28;20175;-74
2021/01/09 11:24:17;;;;;;;21.97;15.23;;;6.10;97.00;;;;;;5067899;28;20248;-75
2021/01/09 11:26:42;;;;;;;19.77;13.23;;;6.60;95.40;;;;;;5070632;28;20981;-75
2021/01/09 11:29:08;;;;;;;18.90;13.13;;;7.40;96.20;;;;;;5074765;28;20194;-74
2021/01/09 11:31:33;;;;;;;24.07;16.00;;;8.70;95.60;;;;;;5071156;28;20552;-75
2021/01/09 11:33:59;;;;;;;24.27;16.17;;;11.00;95.40;;;;;;5074103;28;20198;-75
2021/01/09 11:36:24;;;;;;;20.87;15.07;;;13.30;92.20;;;;;;5071814;28;20223;-75
2021/01/09 11:38:50;;;;;;;18.53;14.73;;;15.20;76.90;;;;;;5073692;28;20680;-75
2021/01/09 11:41:16;;;;;;;17.90;14.00;;;16.70;78.30;;;;;;5072169;28;20528;-75
2021/01/09 11:43:42;;;;;;;19.23;14.90;;;17.90;69.30;;;;;;5069364;28;21012;-75
2021/01/09 11:46:09;;;;;;;19.97;15.30;;;18.50;56.60;;;;;;5072146;28;20428;-75
2021/01/09 11:48:35;;;;;;;17.53;15.20;;;19.30;64.30;;;;;;5070381;28;20459;-75
2021/01/09 11:51:01;;;;;;;16.50;13.90;;;20.10;55.70;;;;;;5073702;28;20439;-75
2021/01/09 11:53:27;;;;;;;12.53;10.90;;;20.20;57.80;;;;;;5073575;28;20436;-75
2021/01/09 11:55:52;;;;;;;12.57;11.00;;;20.40;46.20;;;;;;5070510;28;20434;-75
2021/01/09 11:58:18;;;;;;;14.27;11.30;;;20.20;49.30;;;;;;5072298;28;20269;-75
2021/01/09 12:00:47;;;;;;;14.40;12.70;;;20.70;53.30;;;;;;5073040;28;20692;-74
2021/01/09 12:03:13;;;;;;;14.90;12.30;;;20.80;41.50;;;;;;5074080;28;20722;-75
2021/01/09 12:05:39;;;;;;;13.70;12.30;;;21.10;40.10;;;;;;5070913;28;20515;-75
2021/01/09 12:08:05;;;;;;;17.90;16.00;;;21.70;47.50;;;;;;5073603;28;20447;-75
2021/01/09 12:10:32;;;;;;;12.87;11.40;;;21.50;50.20;;;;;;5071843;28;20421;-75
2021/01/09 12:12:57;;;;;;;12.20;10.63;;;20.30;45.50;;;;;;5066635;28;20448;-75
2021/01/09 12:15:23;;;;;;;14.73;12.60;;;18.10;37.60;;;;;;5073138;28;20579;-75
2021/01/09 12:17:49;;;;;;;16.67;13.03;;;16.80;41.00;;;;;;5073319;28;20193;-75
2021/01/09 12:20:14;;;;;;;13.03;11.30;;;17.30;50.30;;;;;;5064908;28;20645;-75
2021/01/09 12:22:40;;;;;;;15.10;12.40;;;18.00;51.10;;;;;;5073394;28;20252;-75
2021/01/09 12:25:06;;;;;;;12.07;10.77;;;18.20;42.80;;;;;;5073024;28;20224;-75
2021/01/09 12:27:31;;;;;;;13.77;10.47;;;18.70;49.50;;;;;;5071391;28;20665;-75
2021/01/09 12:29:57;;;;;;;11.00;9.87;;;19.30;46.50;;;;;;5071986;28;20448;-75
2021/01/09 12:32:22;;;;;;;11.60;10.40;;;19.80;45.40;;;;;;5072931;28;20283;-75
2021/01/09 12:34:48;;;;;;;9.97;8.77;;;20.20;42.30;;;;;;5071783;28;20262;-74
2021/01/09 12:37:13;;;;;;;10.20;9.20;;;19.50;39.00;;;;;;5067609;28;20194;-75
2021/01/09 12:39:39;;;;;;;9.73;8.77;;;19.80;38.10;;;;;;5072074;28;20186;-76
2021/01/09 12:42:11;;;;;;;12.93;8.90;;;18.70;38.90;;;;;;5067237;28;20191;-75
2021/01/09 12:44:37;;;;;;;9.80;8.80;;;17.60;43.70;;;;;;5071742;28;20198;-75